Airport ID:KEDC
Update Time (UTC):23 MAR 19 15:08
Wind Speed (Knots):3
Wind Direction (Magnetic):160
Temperature (°C):18
Dew Point (°C):15
Humidity (%):80
Altimeter (inHg):30.12
Density Altitude (Feet):
Visibility (Miles):10
Clouds (Hundreds of feet):OVC018
Present Weather:NO PRECIPITATION
METAR:METAR KEDC 231505Z AUTO 00000KT 9SM OVC018 18/15 A3012 RMK AO2

The data displayed is for advisory purposes only and is not to be used for flight planning or operations.

This page is not automatically refreshed. Reload the page to see current data.